Virmond, Brazil
Current Conditions -  °F | °C
As of 10:00 AM on Thursday 18 Dec 2014 (Local Time) from SBCA Reporting Station
Broken Clouds Broken Clouds  
Wind Chill: 75°   Ceiling: 9000
Heat Index: 75°   Visibility: 6mi
Dew Point: 64°   Wind: 12mph
Humidity: 69%   Direction: 330°NNW
Pressure: 29.97"   Gusts: NA
Location:  25.38°S, 52.2°W
Report Text: SBCA 181200Z 33010KT 9999 FEW040 BKN090 24/18 Q1015
Loading
Personal Weather Stations






























Interactive Weather Map New forecast layout! Learn more

10-Day Weather Forecast

Advertisements
Track Severe Weather on mobile